Crooked Creek, Alaska
Current Conditions -  °F | °C
As of 9:16 AM on Monday 22 Dec 2014 (Local Time) from PASL Reporting Station
Overcast Overcast  
Wind Chill: -8°   Ceiling: 1900
Heat Index: -8°   Visibility: 2.5mi
Dew Point: -15°   Wind: 0mph
Humidity: 71%   Direction: NA
Pressure: 29.91"   Gusts: NA
Location:  61.88°N, 158.15°W
Report Text: PASL 221816Z AUTO 00000KT 2 1/2SM OVC019 M22/M26 A2991 RMK AO1
Loading
Personal Weather Stations






























Interactive Weather Map New forecast layout! Learn more

10-Day Weather Forecast

Advertisements
Track Severe Weather on mobile